Time;durP1;ratioP1;P1;durP2;ratioP2;P2;SDS_P1;SDS_P2;PMS_P1;PMS_P2;Temp;Humidity;BMP_temperature;BMP_pressure;BME280_temperature;BME280_humidity;BME280_pressure;Samples;Min_cycle;Max_cycle;Signal;HPM_P1;HPM_P2
2021/08/20 00:00:23;;;;;;;2.13;1.90;;;;;;;13.66;100.00;93144.34;2097443;28;20012;-86
2021/08/20 00:01:25;;;;;;;2.17;1.98;;;;;;;13.59;100.00;93150.69;2097798;28;20381;-86
2021/08/20 00:02:27;;;;;;;4.38;1.83;;;;;;;13.58;100.00;93143.84;2097608;28;20024;-85
2021/08/20 00:03:28;;;;;;;3.00;1.85;;;;;;;13.59;100.00;93149.94;2098089;28;20085;-85
2021/08/20 00:04:29;;;;;;;2.08;1.85;;;;;;;13.58;100.00;93151.16;2102224;28;20584;-84
2021/08/20 00:05:30;;;;;;;2.13;1.88;;;;;;;13.57;100.00;93147.72;2093850;28;20073;-85
2021/08/20 00:06:32;;;;;;;5.22;1.90;;;;;;;13.67;100.00;93150.47;2089395;28;20041;-85
2021/08/20 00:07:33;;;;;;;4.07;1.95;;;;;;;13.63;100.00;93152.53;2097592;28;20032;-86
2021/08/20 00:08:33;;;;;;;2.00;1.75;;;;;;;13.63;100.00;93147.16;2097232;28;20477;-84
2021/08/20 00:09:37;;;;;;;2.03;1.83;;;;;;;13.67;100.00;93147.78;2089537;28;20024;-86
2021/08/20 00:10:38;;;;;;;1.85;1.75;;;;;;;13.64;100.00;93146.72;2085512;28;20057;-84
2021/08/20 00:11:40;;;;;;;3.05;1.95;;;;;;;13.59;100.00;93150.69;2103851;28;20031;-88
2021/08/20 00:12:41;;;;;;;2.30;1.77;;;;;;;13.57;100.00;93139.66;2106019;28;20031;-88
2021/08/20 00:13:42;;;;;;;2.55;1.73;;;;;;;13.61;100.00;93144.91;2097241;28;20020;-85
2021/08/20 00:14:43;;;;;;;1.98;1.80;;;;;;;13.58;100.00;93143.09;2106186;28;20048;-85
2021/08/20 00:15:45;;;;;;;3.22;1.90;;;;;;;13.57;100.00;93138.91;2105749;28;20031;-86
2021/08/20 00:16:46;;;;;;;1.88;1.77;;;;;;;13.57;100.00;93145.03;2097773;28;20039;-88
2021/08/20 00:17:47;;;;;;;2.10;1.90;;;;;;;13.56;100.00;93143.53;2097697;28;20094;-85
2021/08/20 00:18:48;;;;;;;1.92;1.73;;;;;;;13.59;100.00;93144.59;2097843;28;20062;-84
2021/08/20 00:19:49;;;;;;;2.28;1.88;;;;;;;13.60;100.00;93141.44;2097297;28;20119;-85
2021/08/20 00:20:50;;;;;;;3.75;2.10;;;;;;;13.59;100.00;93150.69;2097731;28;20032;-87
2021/08/20 00:21:51;;;;;;;2.10;1.90;;;;;;;13.61;100.00;93147.59;2097639;28;20051;-86
2021/08/20 00:22:52;;;;;;;3.15;2.05;;;;;;;13.65;100.00;93147.47;2105926;28;20465;-85
2021/08/20 00:23:53;;;;;;;2.45;2.13;;;;;;;13.60;100.00;93148.75;2097751;28;20036;-86
2021/08/20 00:24:54;;;;;;;2.03;1.60;;;;;;;13.59;100.00;93144.59;2088917;28;20028;-86
2021/08/20 00:25:55;;;;;;;4.28;2.35;;;;;;;13.59;100.00;93148.00;2088726;28;20099;-86
2021/08/20 00:26:56;;;;;;;3.53;1.80;;;;;;;13.59;100.00;93147.28;2097664;28;20020;-85
2021/08/20 00:27:57;;;;;;;3.78;1.85;;;;;;;13.62;100.00;93146.41;2081472;28;20530;-85
2021/08/20 00:28:59;;;;;;;3.17;2.05;;;;;;;13.60;100.00;93146.81;2085307;28;20430;-85
2021/08/20 00:30:00;;;;;;;2.22;1.92;;;;;;;13.58;100.00;93141.16;2088437;28;20048;-86
2021/08/20 00:31:00;;;;;;;2.40;2.00;;;;;;;13.63;100.00;93144.47;2088361;28;20413;-87
2021/08/20 00:32:02;;;;;;;2.42;1.90;;;;;;;13.60;100.00;93148.75;2094055;28;20078;-87
2021/08/20 00:33:03;;;;;;;4.05;1.65;;;;;;;13.58;100.00;93138.47;2102717;28;20028;-85
2021/08/20 00:34:04;;;;;;;2.42;1.95;;;;;;;13.54;100.00;93135.13;2100984;28;20025;-84
2021/08/20 00:35:06;;;;;;;2.20;1.80;;;;;;;13.54;100.00;93137.81;2097742;28;20028;-86
2021/08/20 00:36:07;;;;;;;1.98;1.83;;;;;;;13.57;100.00;93139.66;2097563;28;20031;-85
2021/08/20 00:37:08;;;;;;;2.50;2.03;;;;;;;13.56;100.00;93138.16;2097008;28;20036;-87
2021/08/20 00:38:09;;;;;;;2.38;1.88;;;;;;;13.51;100.00;93132.56;2105688;28;20030;-87
2021/08/20 00:39:10;;;;;;;2.25;1.77;;;;;;;13.53;100.00;93130.22;2110130;28;20066;-86
2021/08/20 00:40:11;;;;;;;2.58;1.70;;;;;;;13.58;100.00;93135.78;2101580;28;20020;-88
2021/08/20 00:41:12;;;;;;;2.85;2.15;;;;;;;13.65;100.00;93137.47;2089231;28;20024;-87
2021/08/20 00:42:13;;;;;;;1.83;1.73;;;;;;;13.69;100.00;93126.59;2097162;28;20024;-85
2021/08/20 00:43:14;;;;;;;1.98;1.88;;;;;;;13.72;100.00;93126.50;2097381;28;20032;-85
2021/08/20 00:44:17;;;;;;;2.25;1.80;;;;;;;13.72;100.00;93126.50;2097634;28;20021;-85
2021/08/20 00:45:18;;;;;;;3.72;1.80;;;;;;;13.76;100.00;93131.75;2097866;28;20035;-86
2021/08/20 00:46:19;;;;;;;1.70;1.52;;;;;;;13.71;100.00;93135.75;2097248;28;20151;-86
2021/08/20 00:47:20;;;;;;;2.35;1.73;;;;;;;13.65;100.00;93128.66;2102467;28;20036;-86
2021/08/20 00:48:21;;;;;;;3.17;1.58;;;;;;;13.60;100.00;93125.34;2113611;28;20027;-83
2021/08/20 00:49:22;;;;;;;2.40;1.92;;;;;;;13.58;100.00;93127.72;2097448;28;20564;-86
2021/08/20 00:50:23;;;;;;;3.78;2.20;;;;;;;13.57;100.00;93136.22;2097426;28;20020;-85
2021/08/20 00:51:35;;;;;;;1.80;1.70;;;;;;;13.55;100.00;93131.25;2097785;28;20028;-85
2021/08/20 00:52:36;;;;;;;2.05;1.88;;;;;;;13.52;100.00;93132.16;2104632;28;20023;-85
2021/08/20 00:53:37;;;;;;;2.42;2.13;;;;;;;13.54;100.00;93137.81;2097462;28;20032;-84
2021/08/20 00:54:39;;;;;;;3.03;2.20;;;;;;;13.49;100.00;93141.06;2097026;28;20032;-85
2021/08/20 00:55:40;;;;;;;2.47;2.13;;;;;;;13.56;100.00;93140.06;2093605;28;20036;-88
2021/08/20 00:56:43;;;;;;;2.28;1.90;;;;;;;13.46;100.00;93133.88;2105818;28;20027;-87
2021/08/20 00:57:47;;;;;;;2.42;2.22;;;;;;;13.50;100.00;93134.50;2097686;28;20062;-86
2021/08/20 00:58:50;;;;;;;2.97;1.85;;;;;;;13.52;100.00;93137.53;2098619;28;20093;-86
2021/08/20 00:59:50;;;;;;;1.90;1.80;;;;;;;13.49;100.00;93124.94;2097006;28;20492;-85
2021/08/20 01:00:51;;;;;;;2.95;1.83;;;;;;;13.50;100.00;93128.38;2097008;28;20031;-87
2021/08/20 01:01:52;;;;;;;2.17;1.88;;;;;;;13.49;100.00;93129.56;2105559;28;20113;-85
2021/08/20 01:02:53;;;;;;;2.03;1.83;;;;;;;13.50;100.00;93136.44;2114355;28;20023;-85
2021/08/20 01:03:54;;;;;;;2.58;2.17;;;;;;;13.55;100.00;93133.19;2105673;28;20076;-84
2021/08/20 01:04:55;;;;;;;3.03;2.13;;;;;;;13.54;100.00;93123.66;2089152;28;20091;-84
2021/08/20 01:05:57;;;;;;;3.63;2.00;;;;;;;13.55;100.00;93131.25;2096545;28;20028;-87
2021/08/20 01:06:59;;;;;;;2.15;2.05;;;;;;;13.54;100.00;93134.41;2105867;28;20032;-84
2021/08/20 01:08:00;;;;;;;2.97;2.35;;;;;;;13.53;100.00;93127.53;2093281;28;20020;-85
2021/08/20 01:09:01;;;;;;;2.40;1.95;;;;;;;13.48;100.00;93126.16;2097472;28;20028;-84
2021/08/20 01:10:03;;;;;;;3.67;1.88;;;;;;;13.58;100.00;93135.78;2097236;28;20016;-87
2021/08/20 01:11:07;;;;;;;1.52;1.42;;;;;;;13.63;100.00;93131.03;2105337;28;20103;-87
2021/08/20 01:12:08;;;;;;;1.70;1.60;;;;;;;13.65;100.00;93128.66;2105902;28;20123;-85
2021/08/20 01:13:09;;;;;;;5.57;2.40;;;;;;;13.62;100.00;93127.59;2105677;28;20134;-87
2021/08/20 01:14:14;;;;;;;2.58;1.80;;;;;;;13.60;100.00;93129.97;2097419;28;20025;-86
2021/08/20 01:15:15;;;;;;;2.13;1.75;;;;;;;13.62;100.00;93140.28;2105559;28;20031;-84
2021/08/20 01:16:16;;;;;;;7.38;1.80;;;;;;;13.62;100.00;93130.28;2093035;28;20051;-85
2021/08/20 01:17:17;;;;;;;2.58;2.10;;;;;;;13.63;100.00;93131.03;2092841;28;20063;-86
2021/08/20 01:18:30;;;;;;;2.78;1.98;;;;;;;13.64;100.00;93119.09;2091911;28;20067;-85
2021/08/20 01:19:33;;;;;;;3.03;1.88;;;;;;;13.59;100.00;93123.84;2092450;28;20033;-87
2021/08/20 01:20:34;;;;;;;2.13;1.92;;;;;;;13.60;100.00;93128.03;2089461;28;20482;-86
2021/08/20 01:21:35;;;;;;;2.92;1.90;;;;;;;13.52;100.00;93121.41;2084800;28;20095;-86
2021/08/20 01:22:36;;;;;;;2.28;1.88;;;;;;;13.56;100.00;93124.72;2088891;28;20397;-85
2021/08/20 01:23:38;;;;;;;2.05;1.85;;;;;;;13.62;100.00;93124.19;2097281;28;20021;-87
2021/08/20 01:24:43;;;;;;;1.80;1.70;;;;;;;13.56;100.00;93130.09;2097355;28;20117;-86
2021/08/20 01:25:47;;;;;;;1.88;1.65;;;;;;;13.64;100.00;93121.78;2098233;28;20020;-87
2021/08/20 01:26:50;;;;;;;2.67;2.13;;;;;;;13.52;100.00;93118.72;2106090;28;20028;-84
2021/08/20 01:28:06;;;;;;;2.10;1.90;;;;;;;13.49;100.00;93113.47;2106031;28;20085;-85
2021/08/20 01:29:06;;;;;;;2.17;1.98;;;;;;;13.50;100.00;93120.34;2095712;28;20021;-84
2021/08/20 01:30:08;;;;;;;2.40;2.10;;;;;;;13.48;100.00;93120.78;2088681;28;20585;-86
2021/08/20 01:31:12;;;;;;;3.45;2.38;;;;;;;13.50;100.00;93121.06;2105529;28;20055;-86
2021/08/20 01:32:13;;;;;;;3.40;1.80;;;;;;;13.53;100.00;93112.16;2097674;28;20031;-84
2021/08/20 01:33:14;;;;;;;3.10;1.83;;;;;;;13.48;100.00;93122.72;2105575;28;20020;-86
2021/08/20 01:34:16;;;;;;;3.00;2.08;;;;;;;13.49;100.00;93114.22;2105424;28;20027;-87
2021/08/20 01:35:17;;;;;;;4.13;2.45;;;;;;;13.50;100.00;93106.91;2096866;28;20112;-84
2021/08/20 01:36:18;;;;;;;2.90;2.15;;;;;;;13.51;100.00;93111.84;2088788;28;20079;-84
2021/08/20 01:37:19;;;;;;;2.00;1.90;;;;;;;13.52;100.00;93112.59;2097452;28;20074;-86
2021/08/20 01:38:19;;;;;;;3.80;2.00;;;;;;;13.56;100.00;93114.00;2105219;28;20028;-84
2021/08/20 01:39:21;;;;;;;2.30;2.10;;;;;;;13.50;100.00;93117.66;2097131;28;20115;-85
2021/08/20 01:40:22;;;;;;;2.85;1.67;;;;;;;13.53;100.00;93116.78;2088569;28;20089;-87
2021/08/20 01:41:26;;;;;;;2.45;2.25;;;;;;;13.51;100.00;93117.19;2088495;28;20021;-87
2021/08/20 01:42:26;;;;;;;2.30;1.80;;;;;;;13.50;100.00;93114.97;2097830;28;20020;-85
2021/08/20 01:43:27;;;;;;;2.20;2.00;;;;;;;13.51;100.00;93113.78;2097036;28;20031;-86
2021/08/20 01:44:28;;;;;;;2.97;2.20;;;;;;;13.49;100.00;93108.84;2105363;28;20133;-86
2021/08/20 01:45:29;;;;;;;3.80;2.00;;;;;;;13.54;100.00;93115.59;2088846;28;20083;-86
2021/08/20 01:46:31;;;;;;;3.58;1.63;;;;;;;13.57;100.00;93118.16;2096384;28;20029;-86
2021/08/20 01:47:32;;;;;;;2.90;1.77;;;;;;;13.54;100.00;93110.97;2097197;28;20028;-86
2021/08/20 01:48:33;;;;;;;2.95;1.80;;;;;;;13.49;100.00;93108.09;2088891;28;20016;-84
2021/08/20 01:49:34;;;;;;;1.83;1.73;;;;;;;13.47;100.00;93118.50;2097103;28;20097;-85
2021/08/20 01:50:37;;;;;;;2.08;1.90;;;;;;;13.49;100.00;93118.84;2096883;28;20024;-86
2021/08/20 01:51:38;;;;;;;2.90;2.00;;;;;;;13.46;100.00;93115.06;2089023;28;20021;-85
2021/08/20 01:52:39;;;;;;;1.88;1.77;;;;;;;13.46;100.00;93108.97;2101001;28;20024;-84
2021/08/20 01:53:42;;;;;;;2.20;2.00;;;;;;;13.46;100.00;93115.06;2113838;28;20068;-85
2021/08/20 01:54:43;;;;;;;2.15;1.80;;;;;;;13.49;100.00;93118.84;2105350;28;20077;-86
2021/08/20 01:55:44;;;;;;;3.08;1.85;;;;;;;13.52;100.00;93110.66;2088752;28;20044;-83
2021/08/20 01:56:45;;;;;;;2.17;1.90;;;;;;;13.52;100.00;93121.41;2096929;28;20103;-85
2021/08/20 01:57:46;;;;;;;2.20;1.73;;;;;;;13.51;100.00;93116.44;2104986;28;20494;-86
2021/08/20 01:58:50;;;;;;;2.22;2.00;;;;;;;13.48;100.00;93110.03;2096989;28;20033;-87
2021/08/20 01:59:51;;;;;;;3.10;1.90;;;;;;;13.48;100.00;93120.78;2089810;28;20120;-85
2021/08/20 02:00:52;;;;;;;2.70;2.03;;;;;;;13.46;100.00;93115.06;2096982;28;20028;-85
2021/08/20 02:01:53;;;;;;;2.53;1.92;;;;;;;13.43;100.00;93120.56;2105222;28;20428;-85
2021/08/20 02:02:55;;;;;;;2.10;1.90;;;;;;;13.43;100.00;93117.88;2097043;28;20047;-86
2021/08/20 02:03:56;;;;;;;2.15;1.73;;;;;;;13.41;100.00;93118.31;2096741;28;20024;-86
2021/08/20 02:06:57;;;;;;;;;;;;;;;13.42;100.00;93119.81;2140296;27;20165;-90
2021/08/20 02:07:59;;;;;;;2.15;1.75;;;;;;;13.37;100.00;93116.94;2123507;27;19953;-93
2021/08/20 02:09:00;;;;;;;2.15;2.03;;;;;;;13.35;100.00;93122.75;2114199;27;20106;-92
2021/08/20 02:10:07;;;;;;;3.45;2.00;;;;;;;13.38;100.00;93118.41;2113746;27;20543;-93
2021/08/20 02:11:08;;;;;;;2.20;2.00;;;;;;;13.35;100.00;93117.38;2115508;27;20023;-92
2021/08/20 02:12:11;;;;;;;1.98;1.88;;;;;;;13.37;100.00;93123.03;2107780;28;20408;-91
2021/08/20 02:13:12;;;;;;;2.30;2.10;;;;;;;13.37;100.00;93123.03;2097728;28;20116;-93
2021/08/20 02:14:13;;;;;;;5.22;2.20;;;;;;;13.44;100.00;93125.50;2105337;28;20505;-90
2021/08/20 02:15:14;;;;;;;3.13;1.88;;;;;;;13.43;100.00;93125.91;2113675;28;20464;-92
2021/08/20 02:16:15;;;;;;;2.47;1.83;;;;;;;13.43;100.00;93123.25;2105315;28;20114;-90
2021/08/20 02:17:16;;;;;;;3.30;1.90;;;;;;;13.49;100.00;93121.53;2105188;28;20461;-91
2021/08/20 02:18:18;;;;;;;1.75;1.65;;;;;;;13.48;100.00;93112.72;2102694;27;20043;-91
2021/08/20 02:19:19;;;;;;;2.78;2.08;;;;;;;13.44;100.00;93117.44;2130922;27;20051;-92
2021/08/20 02:20:19;;;;;;;2.15;1.98;;;;;;;13.47;100.00;93116.56;2123304;27;20373;-91
2021/08/20 02:21:20;;;;;;;2.13;1.98;;;;;;;13.45;100.00;93118.94;2116893;27;20080;-94
2021/08/20 02:22:21;;;;;;;5.30;1.88;;;;;;;13.45;100.00;93118.94;2122204;27;20495;-93
2021/08/20 02:23:22;;;;;;;3.20;2.05;;;;;;;13.47;100.00;93116.56;2130585;27;20021;-92
2021/08/20 02:24:23;;;;;;;1.80;1.60;;;;;;;13.49;100.00;93119.59;2117801;28;20019;-92
2021/08/20 02:25:24;;;;;;;3.22;2.10;;;;;;;13.50;100.00;93121.06;2113782;28;20069;-89
2021/08/20 02:26:25;;;;;;;2.60;2.40;;;;;;;13.50;100.00;93121.06;2113433;28;20580;-92
2021/08/20 02:27:26;;;;;;;3.95;2.10;;;;;;;13.46;100.00;93117.75;2113445;28;20061;-92
2021/08/20 02:28:27;;;;;;;2.13;1.90;;;;;;;13.44;100.00;93116.69;2113500;28;20381;-91
2021/08/20 02:29:28;;;;;;;2.20;2.00;;;;;;;13.45;100.00;93118.19;2105372;28;20016;-95
2021/08/20 02:30:29;;;;;;;3.38;1.90;;;;;;;13.43;100.00;93117.88;2101046;28;20207;-91
2021/08/20 02:31:30;;;;;;;3.10;1.95;;;;;;;13.40;100.00;93114.13;2097078;28;20027;-91
2021/08/20 02:32:31;;;;;;;3.30;2.00;;;;;;;13.41;100.00;93122.94;2106012;28;20497;-91
2021/08/20 02:33:34;;;;;;;3.45;2.30;;;;;;;13.42;100.00;93119.06;2118610;27;20031;-91
2021/08/20 02:34:35;;;;;;;2.95;2.00;;;;;;;13.41;100.00;93120.25;2116902;28;20027;-93
2021/08/20 02:35:36;;;;;;;2.05;1.85;;;;;;;13.47;100.00;93121.19;2105414;28;20461;-92
2021/08/20 02:36:37;;;;;;;2.70;1.85;;;;;;;13.44;100.00;93122.81;2102322;28;20027;-92
2021/08/20 02:37:38;;;;;;;2.00;1.80;;;;;;;13.46;100.00;93117.00;2112955;28;20488;-93
2021/08/20 02:38:39;;;;;;;3.88;2.03;;;;;;;13.46;100.00;93120.44;2106441;28;20111;-92
2021/08/20 02:39:40;;;;;;;6.00;1.92;;;;;;;13.46;100.00;93120.44;2108799;28;20020;-91
2021/08/20 02:40:41;;;;;;;2.20;2.00;;;;;;;13.43;100.00;93117.88;2105079;28;20434;-91
2021/08/20 02:41:42;;;;;;;2.95;1.98;;;;;;;13.35;100.00;93120.06;2113490;27;20023;-91
2021/08/20 02:42:42;;;;;;;1.90;1.80;;;;;;;13.29;100.00;93117.16;2122067;28;20050;-92
2021/08/20 02:43:43;;;;;;;3.40;1.92;;;;;;;13.30;100.00;93115.97;2106778;28;20046;-92
2021/08/20 02:44:44;;;;;;;2.60;1.73;;;;;;;13.30;100.00;93118.66;2096667;28;20032;-92
2021/08/20 02:45:46;;;;;;;2.13;2.00;;;;;;;13.29;100.00;93116.41;2096809;28;20035;-93
2021/08/20 02:46:47;;;;;;;1.90;1.65;;;;;;;13.26;100.00;93117.28;2096598;28;20028;-91
2021/08/20 02:47:47;;;;;;;2.58;1.67;;;;;;;13.25;100.00;93116.50;2096552;28;20087;-91
2021/08/20 02:48:48;;;;;;;2.20;2.05;;;;;;;13.22;100.00;93113.94;2105098;28;20074;-91
2021/08/20 02:49:49;;;;;;;3.10;1.90;;;;;;;13.21;100.00;93123.16;2121759;28;20020;-91
2021/08/20 02:50:50;;;;;;;2.30;2.13;;;;;;;13.18;100.00;93115.97;2105132;28;20024;-90
2021/08/20 02:51:51;;;;;;;1.75;1.65;;;;;;;13.19;100.00;93125.53;2105101;28;20074;-92
2021/08/20 02:52:52;;;;;;;2.42;1.70;;;;;;;13.15;100.00;93117.56;2109260;28;20590;-94
2021/08/20 02:53:53;;;;;;;1.85;1.75;;;;;;;13.17;100.00;93122.50;2104497;28;20054;-91
2021/08/20 02:54:54;;;;;;;2.67;1.80;;;;;;;13.15;100.00;93122.94;2113583;28;20093;-93
2021/08/20 02:55:55;;;;;;;2.00;1.80;;;;;;;13.13;100.00;93119.94;2100689;28;20082;-91
2021/08/20 02:56:56;;;;;;;2.75;1.90;;;;;;;13.12;100.00;93121.13;2105005;28;20044;-92
2021/08/20 02:57:57;;;;;;;2.22;2.03;;;;;;;13.13;100.00;93117.28;2101015;28;20083;-93
2021/08/20 02:58:58;;;;;;;1.83;1.70;;;;;;;13.14;100.00;93118.75;2105026;28;20495;-91
2021/08/20 02:59:59;;;;;;;1.95;1.75;;;;;;;13.08;100.00;93120.47;2105192;28;20424;-91
2021/08/20 03:01:00;;;;;;;2.65;2.08;;;;;;;13.11;100.00;93123.03;2113169;28;20476;-92
2021/08/20 03:02:01;;;;;;;2.33;2.13;;;;;;;13.08;100.00;93123.16;2105614;28;20020;-91
2021/08/20 03:03:03;;;;;;;2.03;1.92;;;;;;;13.08;100.00;93121.25;2105046;28;20017;-92
2021/08/20 03:04:04;;;;;;;1.85;1.70;;;;;;;13.07;100.00;93125.09;2113368;28;20043;-92
2021/08/20 03:05:06;;;;;;;1.98;1.67;;;;;;;13.06;100.00;93120.91;2101899;28;20077;-92
2021/08/20 03:06:07;;;;;;;2.92;1.90;;;;;;;13.04;100.00;93122.53;2105043;28;20028;-92
2021/08/20 03:07:08;;;;;;;2.40;1.92;;;;;;;13.01;100.00;93118.78;2104734;28;20055;-91
2021/08/20 03:08:09;;;;;;;3.22;1.70;;;;;;;13.00;100.00;93119.97;2098906;28;20119;-92
2021/08/20 03:09:11;;;;;;;1.77;1.67;;;;;;;12.96;100.00;93118.56;2096644;28;20036;-92
2021/08/20 03:10:13;;;;;;;2.13;1.80;;;;;;;12.96;100.00;93123.94;2096862;28;20485;-91
2021/08/20 03:11:14;;;;;;;1.98;1.77;;;;;;;12.91;100.00;93119.88;2111760;27;20027;-91
2021/08/20 03:12:15;;;;;;;1.70;1.60;;;;;;;12.96;100.00;93124.69;2121898;27;20114;-92
2021/08/20 03:13:16;;;;;;;1.95;1.80;;;;;;;12.97;100.00;93118.13;2106263;28;20098;-93
2021/08/20 03:14:17;;;;;;;1.88;1.60;;;;;;;12.95;100.00;93123.19;2096546;28;20024;-93
2021/08/20 03:15:18;;;;;;;2.92;2.20;;;;;;;12.93;100.00;93122.84;2119264;27;20038;-93
2021/08/20 03:16:19;;;;;;;2.28;2.03;;;;;;;12.90;100.00;93121.03;2122893;27;20404;-93
2021/08/20 03:17:19;;;;;;;4.50;2.00;;;;;;;12.87;100.00;93123.84;2112206;28;20092;-93
2021/08/20 03:18:20;;;;;;;2.95;1.98;;;;;;;12.90;100.00;93123.69;2099036;28;20024;-91
2021/08/20 03:19:22;;;;;;;2.05;1.67;;;;;;;12.89;100.00;93126.81;2107508;28;20049;-91
2021/08/20 03:20:22;;;;;;;2.33;1.80;;;;;;;12.86;100.00;93128.44;2095753;28;20020;-92
2021/08/20 03:21:23;;;;;;;2.47;1.88;;;;;;;12.84;100.00;93128.88;2103342;28;20025;-94
2021/08/20 03:22:24;;;;;;;3.20;1.88;;;;;;;12.79;100.00;93125.97;2102880;28;20511;-91
2021/08/20 03:23:25;;;;;;;3.47;1.95;;;;;;;12.81;100.00;93121.66;2099119;28;20048;-92
2021/08/20 03:24:26;;;;;;;2.03;1.83;;;;;;;12.78;100.00;93117.19;2107669;28;20027;-93
2021/08/20 03:25:27;;;;;;;3.13;2.17;;;;;;;12.76;100.00;93124.88;2099169;28;20432;-93
2021/08/20 03:26:28;;;;;;;3.03;1.98;;;;;;;12.70;100.00;93117.81;2107451;28;20012;-92
2021/08/20 03:27:29;;;;;;;3.15;1.90;;;;;;;12.72;100.00;93121.56;2107542;28;20043;-93
2021/08/20 03:28:30;;;;;;;2.63;1.98;;;;;;;12.72;100.00;93123.50;2116316;28;20023;-95
2021/08/20 03:29:31;;;;;;;3.97;1.90;;;;;;;12.63;100.00;93124.13;2115979;27;20016;-92
2021/08/20 03:30:33;;;;;;;1.80;1.70;;;;;;;12.68;100.00;93122.84;2107343;28;20020;-92
2021/08/20 03:31:34;;;;;;;2.50;1.80;;;;;;;12.70;100.00;93120.50;2095032;28;20021;-91
2021/08/20 03:32:35;;;;;;;1.70;1.60;;;;;;;12.70;100.00;93121.25;2098885;28;20058;-92
2021/08/20 03:33:35;;;;;;;2.50;2.00;;;;;;;12.74;100.00;93121.91;2093965;28;20474;-92
2021/08/20 03:34:36;;;;;;;1.80;1.70;;;;;;;12.75;100.00;93119.97;2093247;28;20028;-91
2021/08/20 03:35:37;;;;;;;2.28;1.77;;;;;;;12.71;100.00;93132.72;2098993;28;20036;-91
2021/08/20 03:36:39;;;;;;;2.42;1.90;;;;;;;12.70;100.00;93120.50;2099055;28;20051;-90
2021/08/20 03:37:40;;;;;;;1.90;1.60;;;;;;;12.75;100.00;93122.66;2090995;28;20478;-91
2021/08/20 03:38:41;;;;;;;1.67;1.50;;;;;;;12.69;100.00;93125.13;2103037;28;20031;-91
2021/08/20 03:39:43;;;;;;;2.22;1.75;;;;;;;12.71;100.00;93122.00;2107786;27;20024;-90
2021/08/20 03:40:45;;;;;;;2.38;1.90;;;;;;;12.66;100.00;93120.59;2109370;28;20031;-91
2021/08/20 03:41:47;;;;;;;3.97;2.00;;;;;;;12.65;100.00;93135.19;2104448;28;20031;-92
2021/08/20 03:42:48;;;;;;;1.90;1.75;;;;;;;12.67;100.00;93130.16;2092349;28;20020;-92
2021/08/20 03:43:49;;;;;;;2.10;1.70;;;;;;;12.67;100.00;93126.72;2096834;28;20024;-93
2021/08/20 03:44:50;;;;;;;2.15;1.95;;;;;;;12.70;100.00;93125.88;2112303;28;20023;-90
2021/08/20 03:45:51;;;;;;;2.22;1.92;;;;;;;12.63;100.00;93121.44;2103196;28;20374;-92
2021/08/20 03:46:52;;;;;;;4.40;2.13;;;;;;;12.61;100.00;93129.19;2102362;28;20023;-92
2021/08/20 03:47:53;;;;;;;5.18;1.95;;;;;;;12.59;100.00;93126.16;2094372;28;20546;-91
2021/08/20 03:48:54;;;;;;;2.92;1.65;;;;;;;12.64;100.00;93128.31;2107392;28;20177;-92
2021/08/20 03:49:55;;;;;;;3.05;2.10;;;;;;;12.67;100.00;93134.75;2107480;28;20081;-92
2021/08/20 03:50:56;;;;;;;3.58;2.10;;;;;;;12.64;100.00;93130.25;2107544;28;20393;-91
2021/08/20 03:51:57;;;;;;;2.85;1.95;;;;;;;12.62;100.00;93119.19;2107467;28;20032;-90
2021/08/20 03:52:58;;;;;;;4.50;1.80;;;;;;;12.62;100.00;93133.34;2107289;28;20418;-92
2021/08/20 03:53:59;;;;;;;2.78;1.88;;;;;;;12.66;100.00;93125.97;2098686;28;20048;-92
2021/08/20 03:55:00;;;;;;;1.85;1.75;;;;;;;12.62;100.00;93119.19;2085499;28;20107;-91
2021/08/20 03:56:01;;;;;;;2.10;1.98;;;;;;;12.60;100.00;93127.69;2090733;28;20077;-93
2021/08/20 03:57:02;;;;;;;3.47;1.77;;;;;;;12.57;100.00;93126.59;2090605;28;20035;-92
2021/08/20 03:58:03;;;;;;;2.55;1.73;;;;;;;12.59;100.00;93121.53;2090621;28;20025;-94
2021/08/20 03:59:04;;;;;;;1.90;1.80;;;;;;;12.60;100.00;93125.75;2090941;28;20506;-91
2021/08/20 04:00:06;;;;;;;2.13;1.92;;;;;;;12.52;100.00;93127.13;2082479;28;20032;-91
2021/08/20 04:01:07;;;;;;;5.32;1.65;;;;;;;12.52;100.00;93127.13;2083000;28;20022;-91
2021/08/20 04:02:08;;;;;;;2.05;1.95;;;;;;;12.59;100.00;93129.59;2093823;28;20543;-92
2021/08/20 04:03:09;;;;;;;2.03;1.70;;;;;;;12.58;100.00;93130.78;2098718;28;20020;-91
2021/08/20 04:04:10;;;;;;;3.17;1.83;;;;;;;12.56;100.00;93122.41;2098961;28;20131;-91
2021/08/20 04:05:11;;;;;;;2.53;2.17;;;;;;;12.50;100.00;93134.84;2098795;28;20032;-92
2021/08/20 04:06:13;;;;;;;2.30;2.08;;;;;;;12.53;100.00;93133.25;2106921;28;20028;-91
2021/08/20 04:07:19;;;;;;;2.03;1.75;;;;;;;12.53;100.00;93136.69;2115555;28;20500;-94
2021/08/20 04:08:20;;;;;;;4.35;2.10;;;;;;;12.47;100.00;93134.97;2100308;28;20447;-91
2021/08/20 04:09:20;;;;;;;1.90;1.80;;;;;;;12.42;100.00;93132.78;2090754;28;20029;-92
2021/08/20 04:10:21;;;;;;;4.40;2.05;;;;;;;12.47;100.00;93143.75;2114865;28;20064;-93
2021/08/20 04:11:22;;;;;;;2.17;1.98;;;;;;;12.45;100.00;93142.66;2111945;28;20023;-90
2021/08/20 04:12:23;;;;;;;7.55;2.13;;;;;;;12.44;100.00;93139.25;2098758;28;20028;-94
2021/08/20 04:13:24;;;;;;;4.93;1.83;;;;;;;12.46;100.00;93142.22;2090412;28;20040;-94
2021/08/20 04:14:25;;;;;;;3.35;2.15;;;;;;;12.44;100.00;93147.28;2102518;28;20024;-91
2021/08/20 04:15:26;;;;;;;2.63;1.83;;;;;;;12.45;100.00;93145.34;2098707;28;20021;-90
2021/08/20 04:16:31;;;;;;;3.10;2.75;;;;;;;12.52;100.00;93153.94;2106962;28;20012;-91
2021/08/20 04:17:32;;;;;;;2.10;1.90;;;;;;;12.53;100.00;93149.34;2091463;28;20104;-91
2021/08/20 04:18:33;;;;;;;2.00;1.80;;;;;;;12.53;100.00;93142.03;2098699;28;20073;-92
2021/08/20 04:19:34;;;;;;;2.30;1.77;;;;;;;12.51;100.00;93147.09;2100455;28;20027;-92
2021/08/20 04:20:35;;;;;;;1.95;1.75;;;;;;;12.47;100.00;93146.44;2098799;28;20035;-92
2021/08/20 04:21:36;;;;;;;3.78;1.88;;;;;;;12.48;100.00;93147.19;2098947;28;20069;-94
2021/08/20 04:22:37;;;;;;;2.03;1.88;;;;;;;12.48;100.00;93142.56;2101229;28;20135;-92
2021/08/20 04:23:38;;;;;;;1.73;1.63;;;;;;;12.45;100.00;93142.66;2106902;28;20059;-92
2021/08/20 04:24:41;;;;;;;4.88;1.90;;;;;;;12.44;100.00;93144.59;2107003;28;20480;-92
2021/08/20 04:25:42;;;;;;;1.88;1.77;;;;;;;12.44;100.00;93147.28;2107427;28;20020;-92
2021/08/20 04:26:43;;;;;;;3.63;1.98;;;;;;;12.46;100.00;93150.28;2098671;28;20069;-91
2021/08/20 04:27:44;;;;;;;2.58;1.83;;;;;;;12.40;100.00;93153.91;2098640;28;20028;-91
2021/08/20 04:28:45;;;;;;;1.90;1.80;;;;;;;12.37;100.00;93142.09;2106901;28;20023;-94
2021/08/20 04:29:46;;;;;;;4.97;2.20;;;;;;;12.42;100.00;93152.31;2099276;28;20017;-90
2021/08/20 04:30:47;;;;;;;3.25;1.80;;;;;;;12.38;100.00;93151.69;2098471;28;20464;-93
2021/08/20 04:31:48;;;;;;;3.08;2.08;;;;;;;12.32;100.00;93150.69;2090312;28;20025;-92
2021/08/20 04:32:49;;;;;;;2.00;1.80;;;;;;;12.36;100.00;93151.34;2096253;28;20027;-90
2021/08/20 04:33:50;;;;;;;2.83;2.10;;;;;;;12.39;100.00;93157.78;2098590;28;20029;-91
2021/08/20 04:34:51;;;;;;;3.03;2.00;;;;;;;12.29;100.00;93156.88;2106928;28;20023;-91
2021/08/20 04:35:52;;;;;;;4.28;2.00;;;;;;;12.28;100.00;93147.34;2098610;28;20024;-92
2021/08/20 04:36:53;;;;;;;2.08;1.98;;;;;;;12.27;100.00;93154.63;2105943;28;20019;-91
2021/08/20 04:37:55;;;;;;;2.15;1.95;;;;;;;12.33;100.00;93154.84;2099040;28;20027;-90
2021/08/20 04:38:56;;;;;;;2.63;2.00;;;;;;;12.29;100.00;93146.16;2094493;28;20021;-91
2021/08/20 04:39:57;;;;;;;2.30;2.10;;;;;;;12.35;100.00;93158.63;2098092;28;20021;-92
2021/08/20 04:40:58;;;;;;;4.00;1.73;;;;;;;12.35;100.00;93161.31;2098658;28;20070;-93
2021/08/20 04:41:58;;;;;;;4.10;1.85;;;;;;;12.30;100.00;93159.16;2098793;28;20549;-92
2021/08/20 04:42:59;;;;;;;2.92;2.40;;;;;;;12.29;100.00;93157.66;2090296;28;20025;-93
2021/08/20 04:44:00;;;;;;;3.08;1.67;;;;;;;12.35;100.00;93163.25;2094785;28;20103;-93
2021/08/20 04:45:02;;;;;;;6.20;1.90;;;;;;;12.35;100.00;93155.94;2098324;28;20032;-93
2021/08/20 04:46:03;;;;;;;2.25;2.05;;;;;;;12.33;100.00;93160.97;2106771;28;20023;-89
2021/08/20 04:47:04;;;;;;;2.50;2.08;;;;;;;12.35;100.00;93163.25;2102692;28;20029;-91